Buoy 46562

sailwx.info

Track history (hours):
 
Tides and Currents Weather Stations Pressure Air Temp Water Temp Dewpoint Dewpoint Depression Visibility Wind Speed Wind Dir Waves Ship Positions

Drifting buoy 46562

Last reported at 2015-Jul-01 02:00 UTC. Time now 2015-Jul-01 06:32 UTC.
Position N 40°49' W 129°00'.

Water temperature 17.2 ° C

Date/timePositionNaut miles runAvg speedWind from/ knotsBaromVisibWave heightAir tempDewpointWater temp
2015-Jul-01 02:00N 40°49' W 129°00'0 0.0 17.2
2015-Jun-30 22:00N 40°49' W 129°00'1 0.1 17.2
2015-Jun-30 14:00N 40°49' W 128°59'0 0.2 17.1
2015-Jun-30 13:00N 40°49' W 128°60'1 0.6 17.1
2015-Jun-30 12:00N 40°50' W 128°60'0 0.1 17.1
2015-Jun-30 06:00N 40°50' W 128°59'2 0.1 17.1
2015-Jun-29 16:00N 40°49' W 129°01'0 0.1 17.0
2015-Jun-29 15:00N 40°50' W 129°01'3 0.3 17.0
2015-Jun-29 06:00N 40°52' W 129°02'1 0.7 17.0
2015-Jun-29 04:00N 40°52' W 129°04'1 0.3 17.1
2015-Jun-29 01:00N 40°51' W 129°04'0 0.1 17.6
2015-Jun-28 20:00N 40°51' W 129°04'1 0.2 17.4
2015-Jun-28 15:00N 40°51' W 129°05'0 0.4 16.8
2015-Jun-28 14:00N 40°51' W 129°04'2 0.6 16.8
2015-Jun-28 11:00N 40°52' W 129°07'0 0.0 16.8
2015-Jun-28 10:00N 40°52' W 129°07'1 0.2 16.8
2015-Jun-28 06:00N 40°52' W 129°06'1 0.2 16.8
2015-Jun-28 02:00N 40°51' W 129°06'1 0.9 16.9
2015-Jun-28 01:00N 40°51' W 129°05'0 0.0 16.9
2015-Jun-28 00:00N 40°51' W 129°05'1 0.4 16.8
2015-Jun-27 21:00N 40°52' W 129°05'1 0.3 16.7
2015-Jun-27 17:00N 40°53' W 129°06'1 0.2 16.5
2015-Jun-27 11:00N 40°53' W 129°04'1 0.1 16.5
2015-Jun-27 03:00N 40°53' W 129°03'1 0.2 16.6
2015-Jun-26 19:00N 40°54' W 129°03'0 0.2 16.5
2015-Jun-26 17:00N 40°54' W 129°03'1 0.5 16.5
2015-Jun-26 14:00N 40°53' W 129°02'1 1.0 16.4
2015-Jun-26 13:00N 40°53' W 129°00'1 1.1 16.4
2015-Jun-26 12:00N 40°53' W 128°59'1 1.3 16.5
2015-Jun-26 11:00N 40°54' W 128°59'1 0.4 16.6
2015-Jun-26 09:00N 40°55' W 128°60'0 0.0 16.8
2015-Jun-26 06:00N 40°55' W 129°00'0 0.3 17.4
2015-Jun-26 05:00N 40°55' W 128°60'0 0.2 17.4
2015-Jun-26 04:00N 40°55' W 128°60'0 0.4 17.5
2015-Jun-26 03:00N 40°55' W 128°60'0 0.3 17.5
2015-Jun-26 02:00N 40°55' W 128°60'0 0.4 17.5
2015-Jun-26 01:00N 40°55' W 129°00'0 0.1 17.6
2015-Jun-26 00:00N 40°55' W 129°00'0 0.0 17.7
2015-Jun-25 23:00N 40°55' W 129°00'0 0.4 17.6
2015-Jun-25 22:00N 40°55' W 129°00'0 0.0 17.6
2015-Jun-25 21:00N 40°55' W 129°00'1 0.3 17.5
2015-Jun-25 19:00N 40°56' W 129°01'0 0.2 17.4
2015-Jun-25 17:00N 40°56' W 129°01'0 0.2 17.2
2015-Jun-25 15:00N 40°56' W 129°02'1 0.7 17.2
2015-Jun-25 14:00N 40°56' W 129°01'1 0.6 17.3
2015-Jun-25 13:00N 40°57' W 129°02'0 0.0 17.3
2015-Jun-25 12:00N 40°57' W 129°02'1 0.6 17.3
2015-Jun-25 11:00N 40°57' W 129°02'0 0.0 17.3
2015-Jun-25 07:00N 40°57' W 129°02'0 0.2 17.5
2015-Jun-25 06:00N 40°57' W 129°02'0 0.4 17.6
2015-Jun-25 05:00N 40°57' W 129°02'0 0.2 17.7
2015-Jun-25 03:00N 40°57' W 129°03'0 0.3 17.8
2015-Jun-25 02:00N 40°57' W 129°03'0 0.4 17.8
2015-Jun-25 01:00N 40°57' W 129°03'0 0.2 17.8
2015-Jun-25 00:00N 40°57' W 129°03'1 0.3 17.8
2015-Jun-24 21:00N 40°58' W 129°03'1 0.4 17.7
2015-Jun-24 19:00N 40°58' W 129°04'0 0.4 17.6
2015-Jun-24 18:00N 40°58' W 129°05'0 0.0 17.5
2015-Jun-24 17:00N 40°58' W 129°05'0 0.0 17.4
2015-Jun-24 14:00N 40°58' W 129°05'1 0.2 17.2
2015-Jun-24 10:00N 40°59' W 129°06'1 0.1 17.1
2015-Jun-24 05:00N 40°59' W 129°05'1 0.9 17.3
2015-Jun-24 04:00N 40°60' W 129°06'0 0.1 17.4
2015-Jun-24 02:00N 40°59' W 129°06'1 0.2 17.7
2015-Jun-23 20:00N 40°60' W 129°07'0 0.1 17.4
2015-Jun-23 13:00N 40°60' W 129°07'0 0.2 17.1
2015-Jun-23 12:00N 40°60' W 129°06'0 0.3 17.1
2015-Jun-23 11:00N 40°60' W 129°07'1 0.5 17.1
2015-Jun-23 10:00N 40°59' W 129°07'0 0.1 17.1
2015-Jun-23 03:00N 40°59' W 129°07'0 0.3 17.3
2015-Jun-23 02:00N 40°59' W 129°07'2 0.5 17.4
2015-Jun-22 22:00N 40°57' W 129°07'0 0.0 17.5
2015-Jun-22 21:00N 40°57' W 129°07'1 0.1 17.3
2015-Jun-22 14:00N 40°57' W 129°06'1 0.5 16.7
2015-Jun-22 13:00N 40°57' W 129°07'1 0.5 16.8
2015-Jun-22 12:00N 40°56' W 129°07'1 0.1 16.8
2015-Jun-22 05:00N 40°55' W 129°06'1 0.6 18.0
2015-Jun-22 04:00N 40°56' W 129°06'2 0.4 18.1
2015-Jun-21 22:00N 40°54' W 129°07'1 0.4 17.8
2015-Jun-21 19:00N 40°54' W 129°06'1 0.2 16.6
2015-Jun-21 16:00N 40°55' W 129°06'1 0.5 16.1
2015-Jun-21 15:00N 40°55' W 129°07'0 0.2 16.1
2015-Jun-21 13:00N 40°54' W 129°07'0 0.2 16.1
2015-Jun-21 12:00N 40°54' W 129°08'2 0.3 16.1
2015-Jun-21 06:00N 40°53' W 129°06'   16.2
Track history (hours):
 
Tides and Currents Weather Stations Pressure Air Temp Water Temp Dewpoint Dewpoint Depression Visibility Wind Speed Wind Dir Waves Ship Positions

Drifting buoy 46562

Last reported at 2015-Jul-01 02:00 UTC. Time now 2015-Jul-01 06:32 UTC.
Position N 40°49' W 129°00'.

Water temperature 17.2 ° C

Date/timePositionNaut miles runAvg speedWind from/ knotsBaromVisibWave heightAir tempDewpointWater temp
2015-Jul-01 02:00N 40°49' W 129°00'0 0.0 17.2
2015-Jun-30 22:00N 40°49' W 129°00'1 0.1 17.2
2015-Jun-30 14:00N 40°49' W 128°59'0 0.2 17.1
2015-Jun-30 13:00N 40°49' W 128°60'1 0.6 17.1
2015-Jun-30 12:00N 40°50' W 128°60'0 0.1 17.1
2015-Jun-30 06:00N 40°50' W 128°59'2 0.1 17.1
2015-Jun-29 16:00N 40°49' W 129°01'0 0.1 17.0
2015-Jun-29 15:00N 40°50' W 129°01'3 0.3 17.0
2015-Jun-29 06:00N 40°52' W 129°02'1 0.7 17.0
2015-Jun-29 04:00N 40°52' W 129°04'1 0.3 17.1
2015-Jun-29 01:00N 40°51' W 129°04'0 0.1 17.6
2015-Jun-28 20:00N 40°51' W 129°04'1 0.2 17.4
2015-Jun-28 15:00N 40°51' W 129°05'0 0.4 16.8
2015-Jun-28 14:00N 40°51' W 129°04'2 0.6 16.8
2015-Jun-28 11:00N 40°52' W 129°07'0 0.0 16.8
2015-Jun-28 10:00N 40°52' W 129°07'1 0.2 16.8
2015-Jun-28 06:00N 40°52' W 129°06'1 0.2 16.8
2015-Jun-28 02:00N 40°51' W 129°06'1 0.9 16.9
2015-Jun-28 01:00N 40°51' W 129°05'0 0.0 16.9
2015-Jun-28 00:00N 40°51' W 129°05'1 0.4 16.8
2015-Jun-27 21:00N 40°52' W 129°05'1 0.3 16.7
2015-Jun-27 17:00N 40°53' W 129°06'1 0.2 16.5
2015-Jun-27 11:00N 40°53' W 129°04'1 0.1 16.5
2015-Jun-27 03:00N 40°53' W 129°03'1 0.2 16.6
2015-Jun-26 19:00N 40°54' W 129°03'0 0.2 16.5
2015-Jun-26 17:00N 40°54' W 129°03'1 0.5 16.5
2015-Jun-26 14:00N 40°53' W 129°02'1 1.0 16.4
2015-Jun-26 13:00N 40°53' W 129°00'1 1.1 16.4
2015-Jun-26 12:00N 40°53' W 128°59'1 1.3 16.5
2015-Jun-26 11:00N 40°54' W 128°59'1 0.4 16.6
2015-Jun-26 09:00N 40°55' W 128°60'0 0.0 16.8
2015-Jun-26 06:00N 40°55' W 129°00'0 0.3 17.4
2015-Jun-26 05:00N 40°55' W 128°60'0 0.2 17.4
2015-Jun-26 04:00N 40°55' W 128°60'0 0.4 17.5
2015-Jun-26 03:00N 40°55' W 128°60'0 0.3 17.5
2015-Jun-26 02:00N 40°55' W 128°60'0 0.4 17.5
2015-Jun-26 01:00N 40°55' W 129°00'0 0.1 17.6
2015-Jun-26 00:00N 40°55' W 129°00'0 0.0 17.7
2015-Jun-25 23:00N 40°55' W 129°00'0 0.4 17.6
2015-Jun-25 22:00N 40°55' W 129°00'0 0.0 17.6
2015-Jun-25 21:00N 40°55' W 129°00'1 0.3 17.5
2015-Jun-25 19:00N 40°56' W 129°01'0 0.2 17.4
2015-Jun-25 17:00N 40°56' W 129°01'0 0.2 17.2
2015-Jun-25 15:00N 40°56' W 129°02'1 0.7 17.2
2015-Jun-25 14:00N 40°56' W 129°01'1 0.6 17.3
2015-Jun-25 13:00N 40°57' W 129°02'0 0.0 17.3
2015-Jun-25 12:00N 40°57' W 129°02'1 0.6 17.3
2015-Jun-25 11:00N 40°57' W 129°02'0 0.0 17.3
2015-Jun-25 07:00N 40°57' W 129°02'0 0.2 17.5
2015-Jun-25 06:00N 40°57' W 129°02'0 0.4 17.6
2015-Jun-25 05:00N 40°57' W 129°02'0 0.2 17.7
2015-Jun-25 03:00N 40°57' W 129°03'0 0.3 17.8
2015-Jun-25 02:00N 40°57' W 129°03'0 0.4 17.8
2015-Jun-25 01:00N 40°57' W 129°03'0 0.2 17.8
2015-Jun-25 00:00N 40°57' W 129°03'1 0.3 17.8
2015-Jun-24 21:00N 40°58' W 129°03'1 0.4 17.7
2015-Jun-24 19:00N 40°58' W 129°04'0 0.4 17.6
2015-Jun-24 18:00N 40°58' W 129°05'0 0.0 17.5
2015-Jun-24 17:00N 40°58' W 129°05'0 0.0 17.4
2015-Jun-24 14:00N 40°58' W 129°05'1 0.2 17.2
2015-Jun-24 10:00N 40°59' W 129°06'1 0.1 17.1
2015-Jun-24 05:00N 40°59' W 129°05'1 0.9 17.3
2015-Jun-24 04:00N 40°60' W 129°06'0 0.1 17.4
2015-Jun-24 02:00N 40°59' W 129°06'1 0.2 17.7
2015-Jun-23 20:00N 40°60' W 129°07'0 0.1 17.4
2015-Jun-23 13:00N 40°60' W 129°07'0 0.2 17.1
2015-Jun-23 12:00N 40°60' W 129°06'0 0.3 17.1
2015-Jun-23 11:00N 40°60' W 129°07'1 0.5 17.1
2015-Jun-23 10:00N 40°59' W 129°07'0 0.1 17.1
2015-Jun-23 03:00N 40°59' W 129°07'0 0.3 17.3
2015-Jun-23 02:00N 40°59' W 129°07'2 0.5 17.4
2015-Jun-22 22:00N 40°57' W 129°07'0 0.0 17.5
2015-Jun-22 21:00N 40°57' W 129°07'1 0.1 17.3
2015-Jun-22 14:00N 40°57' W 129°06'1 0.5 16.7
2015-Jun-22 13:00N 40°57' W 129°07'1 0.5 16.8
2015-Jun-22 12:00N 40°56' W 129°07'1 0.1 16.8
2015-Jun-22 05:00N 40°55' W 129°06'1 0.6 18.0
2015-Jun-22 04:00N 40°56' W 129°06'2 0.4 18.1
2015-Jun-21 22:00N 40°54' W 129°07'1 0.4 17.8
2015-Jun-21 19:00N 40°54' W 129°06'1 0.2 16.6
2015-Jun-21 16:00N 40°55' W 129°06'1 0.5 16.1
2015-Jun-21 15:00N 40°55' W 129°07'0 0.2 16.1
2015-Jun-21 13:00N 40°54' W 129°07'0 0.2 16.1
2015-Jun-21 12:00N 40°54' W 129°08'2 0.3 16.1
2015-Jun-21 06:00N 40°53' W 129°06'   16.2

Dump ship's entire track history